createdAt,value
2018-08-13T00:02:09.603Z,56.10
2018-08-13T00:05:34.048Z,55.50
2018-08-13T00:08:58.536Z,54.00
2018-08-13T00:12:23.027Z,50.70
2018-08-13T00:15:47.472Z,48.70
2018-08-13T00:19:11.859Z,50.40
2018-08-13T00:22:36.277Z,47.90
2018-08-13T00:26:00.699Z,48.80
2018-08-13T00:29:25.271Z,48.00
2018-08-13T00:32:49.724Z,46.50
2018-08-13T00:36:14.137Z,45.80
2018-08-13T00:39:38.524Z,45.40
2018-08-13T00:43:02.996Z,45.50
2018-08-13T00:46:26.394Z,45.70
2018-08-13T00:49:50.880Z,45.30
2018-08-13T00:53:15.303Z,45.10
2018-08-13T00:56:39.714Z,44.90
2018-08-13T01:00:05.025Z,45.70
2018-08-13T01:03:29.443Z,46.10
2018-08-13T01:06:53.882Z,45.50
2018-08-13T01:10:21.973Z,45.80
2018-08-13T01:13:46.378Z,45.90
2018-08-13T01:17:10.877Z,47.60
2018-08-13T01:20:35.558Z,46.80
2018-08-13T01:23:59.949Z,47.70
2018-08-13T01:27:29.588Z,47.60
2018-08-13T01:30:54.062Z,48.10
2018-08-13T01:34:18.496Z,49.80
2018-08-13T01:37:42.951Z,51.10
2018-08-13T01:41:07.367Z,52.30
2018-08-13T01:44:31.783Z,53.10
2018-08-13T01:47:56.209Z,53.50
2018-08-13T01:51:20.664Z,55.00
2018-08-13T01:54:45.145Z,55.50
2018-08-13T01:58:09.583Z,55.80
2018-08-13T02:01:34.051Z,55.40
2018-08-13T02:04:58.462Z,56.40
2018-08-13T02:08:22.865Z,55.20
2018-08-13T02:11:47.308Z,56.30
2018-08-13T02:15:11.819Z,55.90
2018-08-13T02:18:36.237Z,56.80
2018-08-13T02:22:00.887Z,56.60
2018-08-13T02:25:25.312Z,51.90
2018-08-13T02:28:49.756Z,50.60
2018-08-13T02:32:14.204Z,49.50
2018-08-13T02:35:38.632Z,49.00
2018-08-13T02:39:03.165Z,47.70
2018-08-13T02:42:27.785Z,47.70
2018-08-13T02:45:52.249Z,46.50
2018-08-13T02:49:16.667Z,46.20
2018-08-13T02:52:41.314Z,46.40
2018-08-13T02:56:05.882Z,46.40
2018-08-13T02:59:30.316Z,45.60
2018-08-13T03:02:54.756Z,45.50
2018-08-13T03:06:19.212Z,45.50
2018-08-13T03:09:43.626Z,45.80
2018-08-13T03:13:08.126Z,45.90
2018-08-13T03:16:32.547Z,46.70
2018-08-13T03:19:57.519Z,49.70
2018-08-13T03:23:22.081Z,49.70
2018-08-13T03:26:46.560Z,47.40
2018-08-13T03:30:12.801Z,47.40
2018-08-13T03:33:37.398Z,47.70
2018-08-13T03:37:01.706Z,48.00
2018-08-13T03:40:26.162Z,48.40
2018-08-13T03:43:50.646Z,49.00
2018-08-13T03:47:15.176Z,49.70
2018-08-13T03:50:39.663Z,50.20
2018-08-13T03:54:04.148Z,50.50
2018-08-13T03:57:28.609Z,50.80
2018-08-13T04:00:53.104Z,51.00
2018-08-13T04:04:17.543Z,51.30
2018-08-13T04:07:41.995Z,51.70
2018-08-13T04:11:06.700Z,52.00
2018-08-13T04:14:31.230Z,52.40
2018-08-13T04:17:55.661Z,53.40
2018-08-13T04:21:20.110Z,55.50
2018-08-13T04:24:44.688Z,57.70
2018-08-13T04:28:09.083Z,61.40
2018-08-13T04:31:33.530Z,65.90
2018-08-13T04:34:58.184Z,70.30
2018-08-13T04:38:22.578Z,80.20
2018-08-13T04:41:46.965Z,82.10
2018-08-13T04:45:11.632Z,83.50
2018-08-13T04:48:36.076Z,88.50
2018-08-13T04:52:00.524Z,91.00
2018-08-13T04:55:24.954Z,93.60
2018-08-13T04:58:49.445Z,94.00
2018-08-13T05:02:13.924Z,93.50
2018-08-13T05:05:38.370Z,94.20
2018-08-13T05:09:06.695Z,95.10
2018-08-13T05:12:31.177Z,95.10
2018-08-13T05:15:55.625Z,94.90
2018-08-13T05:19:20.077Z,96.10
2018-08-13T05:22:44.532Z,93.40
2018-08-13T05:26:10.468Z,95.30
2018-08-13T05:29:34.960Z,96.00
2018-08-13T05:32:59.408Z,96.20
2018-08-13T05:36:23.829Z,95.50
2018-08-13T05:39:48.301Z,96.40
2018-08-13T05:43:12.761Z,94.50
2018-08-13T05:46:37.179Z,94.50
2018-08-13T05:50:01.607Z,95.40
2018-08-13T05:53:26.042Z,95.80
2018-08-13T05:56:50.460Z,96.70
2018-08-13T06:00:14.857Z,97.80
2018-08-13T06:03:39.302Z,98.00
2018-08-13T06:07:03.947Z,98.20
2018-08-13T06:10:28.353Z,98.40
2018-08-13T06:13:52.768Z,99.20
2018-08-13T06:17:17.206Z,99.90
2018-08-13T06:20:41.703Z,99.80
2018-08-13T06:24:06.256Z,99.90
2018-08-13T06:27:30.627Z,99.90
2018-08-13T06:30:55.090Z,99.90
2018-08-13T06:34:19.500Z,99.90
2018-08-13T06:37:44.622Z,99.90
2018-08-13T06:41:09.018Z,99.90
2018-08-13T06:44:33.448Z,99.40
2018-08-13T06:47:57.951Z,99.10
2018-08-13T06:51:22.444Z,99.40
2018-08-13T06:54:46.867Z,99.20
2018-08-13T06:58:11.338Z,98.20
2018-08-13T07:01:35.794Z,97.10
2018-08-13T07:05:00.227Z,97.30
2018-08-13T07:08:24.705Z,97.30
2018-08-13T07:11:49.128Z,97.40
2018-08-13T07:15:14.130Z,96.20
2018-08-13T07:18:38.627Z,96.80
2018-08-13T07:22:03.262Z,95.20
2018-08-13T07:25:27.643Z,94.30
2018-08-13T07:28:52.079Z,93.30
2018-08-13T07:32:16.516Z,92.60
2018-08-13T07:35:40.952Z,92.20
2018-08-13T07:39:08.907Z,92.80
2018-08-13T07:42:33.418Z,91.40
2018-08-13T07:45:57.870Z,91.00
2018-08-13T07:49:22.298Z,90.60
2018-08-13T07:52:46.705Z,89.40
2018-08-13T07:56:11.258Z,89.30
2018-08-13T07:59:35.745Z,90.80
2018-08-13T08:03:00.224Z,89.30
2018-08-13T08:06:24.686Z,89.20
2018-08-13T08:09:49.198Z,89.80
2018-08-13T08:13:13.720Z,89.60
2018-08-13T08:16:38.384Z,90.30
2018-08-13T08:20:03.425Z,89.80
2018-08-13T08:23:29.566Z,88.70
2018-08-13T08:26:54.092Z,87.80
2018-08-13T08:30:18.536Z,87.40
2018-08-13T08:33:42.996Z,88.80
2018-08-13T08:37:07.522Z,87.10
2018-08-13T08:40:32.089Z,88.70
2018-08-13T08:43:56.552Z,89.00
2018-08-13T08:47:21.032Z,89.60
2018-08-13T08:50:45.555Z,89.30
2018-08-13T08:54:11.393Z,88.50
2018-08-13T08:57:35.895Z,86.60
2018-08-13T09:01:00.383Z,85.10
2018-08-13T09:04:24.865Z,83.20
2018-08-13T09:07:49.459Z,81.50
2018-08-13T09:11:13.916Z,80.30
2018-08-13T09:14:38.369Z,79.10
2018-08-13T09:37:22.692Z,76.50
2018-08-13T09:40:47.131Z,78.30
2018-08-13T09:44:11.602Z,76.10
2018-08-13T09:47:36.248Z,75.20
2018-08-13T09:51:00.708Z,75.00
2018-08-13T09:54:25.180Z,74.00
2018-08-13T09:57:50.295Z,74.30
2018-08-13T10:01:14.659Z,71.80
2018-08-13T10:04:39.125Z,72.20
2018-08-13T10:08:03.622Z,73.40
2018-08-13T10:11:28.071Z,73.30
2018-08-13T10:14:52.561Z,73.90
2018-08-13T10:18:16.963Z,73.10
2018-08-13T10:21:41.344Z,72.70
2018-08-13T10:25:07.422Z,69.10
2018-08-13T10:28:31.880Z,68.10
2018-08-13T10:31:56.354Z,68.40
2018-08-13T10:35:20.759Z,68.50
2018-08-13T10:38:45.283Z,68.00
2018-08-13T10:42:09.775Z,68.90
2018-08-13T10:45:34.238Z,69.20
2018-08-13T10:48:58.702Z,69.40
2018-08-13T10:52:23.219Z,74.80
2018-08-13T10:55:47.625Z,81.60
2018-08-13T10:59:12.032Z,87.60
2018-08-13T11:02:36.466Z,90.10
2018-08-13T11:06:00.896Z,90.00
2018-08-13T11:09:25.327Z,91.50
2018-08-13T11:12:49.745Z,92.70
2018-08-13T11:16:14.242Z,94.30
2018-08-13T11:19:38.685Z,95.00
2018-08-13T11:23:03.167Z,94.80
2018-08-13T11:26:27.678Z,96.30
2018-08-13T11:29:52.177Z,95.20
2018-08-13T11:33:16.702Z,95.20
2018-08-13T11:36:41.173Z,93.90
2018-08-13T11:40:13.321Z,93.70
2018-08-13T11:43:37.792Z,93.00
2018-08-13T11:47:02.271Z,93.50
2018-08-13T11:50:26.814Z,92.30
2018-08-13T11:53:51.389Z,90.40
2018-08-13T11:57:15.853Z,89.60
2018-08-13T12:00:40.365Z,84.80
2018-08-13T12:04:04.875Z,84.80
2018-08-13T12:07:29.428Z,86.00
2018-08-13T12:10:53.985Z,89.20
2018-08-13T12:14:18.461Z,91.00
2018-08-13T12:17:43.277Z,92.90
2018-08-13T12:21:07.778Z,94.30
2018-08-13T12:24:32.323Z,94.80
2018-08-13T12:27:56.853Z,95.40
2018-08-13T12:31:21.384Z,95.70
2018-08-13T12:34:45.900Z,96.10
2018-08-13T12:38:10.504Z,96.20
2018-08-13T12:41:35.068Z,95.30
2018-08-13T12:44:59.544Z,96.40
2018-08-13T12:48:24.019Z,95.30
2018-08-13T12:51:48.505Z,93.50
2018-08-13T12:55:13.447Z,90.90
2018-08-13T12:58:37.947Z,80.90
2018-08-13T13:02:02.502Z,76.10
2018-08-13T13:05:26.985Z,73.00
2018-08-13T13:08:51.630Z,72.20
2018-08-13T13:12:16.072Z,69.90
2018-08-13T13:15:40.592Z,64.00
2018-08-13T13:19:05.130Z,57.10
2018-08-13T13:22:29.685Z,55.90
2018-08-13T13:25:54.382Z,53.40
2018-08-13T13:29:18.804Z,52.50
2018-08-13T13:32:43.581Z,55.70
2018-08-13T13:36:08.334Z,61.00
2018-08-13T13:39:32.882Z,62.60
2018-08-13T13:42:57.435Z,63.70
2018-08-13T13:46:22.000Z,65.90
2018-08-13T13:49:46.448Z,69.30
2018-08-13T13:53:10.887Z,70.60
2018-08-13T13:56:35.358Z,71.20
2018-08-13T13:59:59.823Z,71.60
2018-08-13T14:03:24.310Z,82.90
2018-08-13T14:06:48.748Z,91.50
2018-08-13T14:10:17.375Z,93.50
2018-08-13T14:13:41.864Z,94.50
2018-08-13T14:17:06.468Z,94.40
2018-08-13T14:20:30.978Z,95.70
2018-08-13T14:23:55.470Z,95.80
2018-08-13T14:27:19.948Z,95.70
2018-08-13T14:30:44.406Z,94.60
2018-08-13T14:34:08.869Z,91.60
2018-08-13T14:37:33.351Z,92.00
2018-08-13T14:40:57.788Z,90.00
2018-08-13T14:44:22.238Z,91.00
2018-08-13T14:47:48.133Z,91.90
2018-08-13T14:51:12.591Z,91.00
2018-08-13T14:54:36.995Z,91.00
2018-08-13T14:58:01.443Z,90.60
2018-08-13T15:01:25.952Z,84.60
2018-08-13T15:04:52.487Z,80.50
2018-08-13T15:08:16.981Z,81.10
2018-08-13T15:11:42.374Z,82.90
2018-08-13T15:15:09.834Z,83.20
2018-08-13T15:18:34.252Z,83.80
2018-08-13T15:21:58.715Z,84.50
2018-08-13T15:25:23.227Z,84.70
2018-08-13T15:28:47.670Z,82.10
2018-08-13T15:32:12.083Z,83.60
2018-08-13T15:35:36.544Z,83.40
2018-08-13T15:39:00.998Z,84.20
2018-08-13T15:42:25.478Z,87.00
2018-08-13T15:45:49.896Z,88.50
2018-08-13T15:49:14.331Z,90.50
2018-08-13T15:52:39.088Z,92.10
2018-08-13T15:56:03.500Z,91.90
2018-08-13T15:59:27.925Z,90.60
2018-08-13T16:02:52.546Z,91.40
2018-08-13T16:06:17.028Z,90.60
2018-08-13T16:09:41.776Z,81.40
2018-08-13T16:13:06.215Z,64.20
2018-08-13T16:16:30.648Z,51.60
2018-08-13T16:19:55.273Z,45.70
2018-08-13T16:23:19.745Z,42.80
2018-08-13T16:26:44.270Z,46.20
2018-08-13T16:30:26.244Z,51.00
2018-08-13T16:33:50.728Z,56.40
2018-08-13T16:37:15.177Z,58.00
2018-08-13T16:40:39.588Z,55.10
2018-08-13T16:44:04.103Z,56.30
2018-08-13T16:47:28.536Z,56.90
2018-08-13T16:50:53.006Z,59.80
2018-08-13T16:54:17.381Z,64.20
2018-08-13T16:57:42.595Z,68.20
2018-08-13T17:01:07.127Z,69.60
2018-08-13T17:04:31.529Z,71.90
2018-08-13T17:07:55.921Z,74.80
2018-08-13T17:11:20.383Z,74.70
2018-08-13T17:14:46.955Z,75.10
2018-08-13T17:18:11.605Z,75.40
2018-08-13T17:21:38.609Z,76.50
2018-08-13T17:25:04.124Z,76.20
2018-08-13T17:28:29.522Z,77.30
2018-08-13T17:31:55.227Z,78.40
2018-08-13T17:35:22.396Z,79.90
2018-08-13T17:38:46.981Z,80.50
2018-08-13T17:42:11.389Z,81.40
2018-08-13T17:45:35.848Z,82.00
2018-08-13T17:49:00.661Z,83.10
2018-08-13T17:52:25.124Z,83.30
2018-08-13T17:55:49.861Z,84.00
2018-08-13T17:59:17.079Z,84.20
2018-08-13T18:02:42.170Z,85.90
2018-08-13T18:06:07.316Z,83.40
2018-08-13T18:09:30.698Z,83.70
2018-08-13T18:12:56.013Z,89.30
2018-08-13T18:16:21.490Z,92.80
2018-08-13T18:19:45.977Z,96.00
2018-08-13T18:23:10.530Z,98.80
2018-08-13T18:26:35.129Z,99.90
2018-08-13T18:30:00.977Z,99.90
2018-08-13T18:33:27.533Z,99.90
2018-08-13T18:36:52.077Z,99.90
2018-08-13T18:40:23.608Z,99.90
2018-08-13T18:43:48.045Z,99.90
2018-08-13T18:47:13.011Z,99.90
2018-08-13T18:50:37.557Z,99.90
2018-08-13T18:54:02.178Z,99.90
2018-08-13T18:57:26.712Z,99.90
2018-08-13T19:00:54.058Z,99.90
2018-08-13T19:04:18.580Z,99.90
2018-08-13T19:07:44.326Z,99.90
2018-08-13T19:11:09.732Z,99.90
2018-08-13T19:14:34.168Z,99.90
2018-08-13T19:17:58.648Z,99.90
2018-08-13T19:21:23.196Z,99.90
2018-08-13T19:24:47.712Z,99.90
2018-08-13T19:28:12.204Z,99.90
2018-08-13T19:31:36.651Z,99.90
2018-08-13T19:35:01.137Z,99.90
2018-08-13T19:38:25.559Z,99.90
2018-08-13T19:41:50.085Z,99.90
2018-08-13T19:45:15.570Z,99.90
2018-08-13T19:48:39.974Z,99.90
2018-08-13T19:52:04.503Z,99.90
2018-08-13T19:55:28.943Z,99.90
2018-08-13T19:58:53.358Z,99.90
2018-08-13T20:02:17.900Z,99.90
2018-08-13T20:05:42.714Z,99.90
2018-08-13T20:09:10.088Z,99.90
2018-08-13T20:12:34.558Z,99.90
2018-08-13T20:15:58.984Z,99.90
2018-08-13T20:19:23.467Z,99.90
2018-08-13T20:22:48.424Z,99.90
2018-08-13T20:26:12.888Z,99.90
2018-08-13T20:29:37.358Z,99.90
2018-08-13T20:33:02.140Z,99.90
2018-08-13T20:36:26.620Z,99.90
2018-08-13T20:40:08.368Z,99.90
2018-08-13T20:43:32.969Z,99.90
2018-08-13T20:46:57.827Z,99.90
2018-08-13T20:50:24.750Z,99.90
2018-08-13T20:53:49.235Z,99.90
2018-08-13T20:57:13.921Z,99.90
2018-08-13T21:00:38.421Z,99.90
2018-08-13T21:04:02.927Z,99.90
2018-08-13T21:07:27.471Z,99.90
2018-08-13T21:10:52.002Z,99.90
2018-08-13T21:14:16.416Z,99.90
2018-08-13T21:17:41.217Z,99.90
2018-08-13T21:21:05.827Z,99.90
2018-08-13T21:24:30.406Z,99.90
2018-08-13T21:27:55.076Z,99.90
2018-08-13T21:31:19.639Z,99.90
2018-08-13T21:34:44.212Z,99.90
2018-08-13T21:38:09.444Z,99.90
2018-08-13T21:41:33.968Z,99.90
2018-08-13T21:44:59.048Z,99.90
2018-08-13T21:48:23.560Z,99.90
2018-08-13T21:51:48.179Z,99.90
2018-08-13T21:55:12.928Z,99.90
2018-08-13T21:58:37.389Z,99.90
2018-08-13T22:02:01.975Z,99.90
2018-08-13T22:05:26.438Z,99.90
2018-08-13T22:08:50.927Z,99.90
2018-08-13T22:12:20.370Z,99.90
2018-08-13T22:15:44.915Z,99.90
2018-08-13T22:19:10.308Z,99.90
2018-08-13T22:22:34.749Z,99.90
2018-08-13T22:25:59.327Z,99.90
2018-08-13T22:29:23.816Z,99.90
2018-08-13T22:32:48.283Z,99.90
2018-08-13T22:36:12.927Z,99.90
2018-08-13T22:39:37.350Z,99.90
2018-08-13T22:43:02.036Z,99.90
2018-08-13T22:46:26.462Z,99.90
2018-08-13T22:49:50.921Z,99.90
2018-08-13T22:53:15.420Z,99.90
2018-08-13T22:56:39.916Z,99.90
2018-08-13T23:00:05.249Z,99.90
2018-08-13T23:03:29.721Z,99.90
2018-08-13T23:06:54.234Z,99.90
2018-08-13T23:10:20.520Z,99.90
2018-08-13T23:13:44.974Z,99.90
2018-08-13T23:17:09.429Z,99.90
2018-08-13T23:20:33.904Z,99.90
2018-08-13T23:23:58.516Z,99.90
2018-08-13T23:27:22.980Z,99.90
2018-08-13T23:30:47.479Z,99.90
2018-08-13T23:34:12.014Z,99.90
2018-08-13T23:37:36.509Z,99.90
2018-08-13T23:41:00.988Z,99.90
2018-08-13T23:44:25.501Z,99.90
2018-08-13T23:47:50.037Z,99.90
2018-08-13T23:51:14.526Z,99.90
2018-08-13T23:54:38.980Z,99.90
2018-08-13T23:58:04.611Z,99.90
